createdAt,value
2023-04-14T00:01:22.557Z,0.27
2023-04-14T00:03:49.727Z,0.00
2023-04-14T00:06:16.756Z,0.00
2023-04-14T00:08:43.799Z,0.00
2023-04-14T00:11:10.729Z,0.00
2023-04-14T00:13:38.131Z,0.00
2023-04-14T00:16:06.180Z,0.00
2023-04-14T00:18:33.143Z,0.00
2023-04-14T00:21:00.052Z,0.00
2023-04-14T00:23:29.338Z,0.00
2023-04-14T00:25:56.449Z,0.00
2023-04-14T00:28:23.521Z,0.00
2023-04-14T00:30:50.542Z,0.00
2023-04-14T00:33:17.475Z,0.00
2023-04-14T00:35:44.456Z,0.00
2023-04-14T00:38:11.952Z,0.13
2023-04-14T00:40:39.055Z,0.00
2023-04-14T00:43:06.029Z,0.00
2023-04-14T00:45:33.535Z,0.00
2023-04-14T00:48:01.065Z,0.00
2023-04-14T00:50:28.312Z,0.00
2023-04-14T00:52:55.526Z,0.10
2023-04-14T00:55:22.581Z,0.00
2023-04-14T00:57:49.672Z,0.10
2023-04-14T01:00:17.032Z,0.00
2023-04-14T01:02:44.252Z,0.00
2023-04-14T01:05:11.734Z,0.10
2023-04-14T01:07:39.717Z,0.00
2023-04-14T01:10:09.670Z,0.00
2023-04-14T01:13:05.608Z,0.00
2023-04-14T01:15:43.107Z,0.00
2023-04-14T01:18:22.115Z,0.00
2023-04-14T01:20:52.927Z,0.00
2023-04-14T01:23:26.500Z,0.00
2023-04-14T01:26:10.104Z,0.10
2023-04-14T01:29:04.359Z,0.00
2023-04-14T01:31:40.301Z,0.00
2023-04-14T01:34:22.276Z,0.20
2023-04-14T01:37:26.204Z,0.13
2023-04-14T01:39:54.463Z,0.10
2023-04-14T01:42:26.595Z,0.00
2023-04-14T01:49:03.782Z,0.00
2023-04-14T01:51:31.790Z,0.00
2023-04-14T01:53:58.943Z,0.10
2023-04-14T01:56:27.907Z,0.10
2023-04-14T01:58:55.615Z,0.53
2023-04-14T02:01:22.906Z,0.00
2023-04-14T02:03:50.203Z,0.03
2023-04-14T02:06:17.350Z,0.00
2023-04-14T02:08:44.328Z,0.30
2023-04-14T02:11:11.392Z,0.00
2023-04-14T02:13:38.842Z,0.10
2023-04-14T02:16:06.141Z,0.00
2023-04-14T02:18:33.410Z,0.00
2023-04-14T02:21:00.575Z,0.00
2023-04-14T02:23:28.281Z,0.00
2023-04-14T02:26:03.880Z,0.00
2023-04-14T02:28:33.512Z,0.10
2023-04-14T02:31:01.324Z,0.00
2023-04-14T02:33:29.534Z,0.00
2023-04-14T02:36:06.653Z,0.00
2023-04-14T02:38:39.337Z,0.00
2023-04-14T02:41:13.050Z,0.10
2023-04-14T02:44:00.375Z,0.00
2023-04-14T02:46:27.581Z,0.20
2023-04-14T02:48:54.510Z,0.00
2023-04-14T02:51:21.665Z,0.20
2023-04-14T02:53:48.836Z,0.00
2023-04-14T02:56:26.234Z,0.10
2023-04-14T02:58:56.021Z,0.00
2023-04-14T03:01:25.006Z,0.10
2023-04-14T03:03:53.365Z,0.20
2023-04-14T03:06:20.630Z,0.20
2023-04-14T03:08:47.926Z,0.10
2023-04-14T03:11:16.251Z,0.10
2023-04-14T03:13:44.691Z,0.00
2023-04-14T03:16:11.850Z,0.00
2023-04-14T03:18:38.876Z,0.10
2023-04-14T03:21:06.492Z,0.00
2023-04-14T03:23:33.652Z,0.00
2023-04-14T03:26:04.715Z,0.30
2023-04-14T03:28:32.541Z,0.00
2023-04-14T03:31:01.379Z,0.17
2023-04-14T03:33:35.067Z,0.20
2023-04-14T03:36:02.096Z,0.10
2023-04-14T03:38:30.070Z,0.30
2023-04-14T03:40:59.784Z,0.10
2023-04-14T03:43:28.490Z,0.40
2023-04-14T03:46:02.493Z,0.20
2023-04-14T03:48:30.331Z,0.27
2023-04-14T03:50:58.229Z,0.20
2023-04-14T03:53:25.602Z,0.43
2023-04-14T03:55:53.591Z,0.40
2023-04-14T03:58:20.831Z,0.33
2023-04-14T04:07:17.555Z,0.10
2023-04-14T04:09:45.831Z,0.10
2023-04-14T04:12:12.968Z,0.20
2023-04-14T04:14:42.597Z,0.10
2023-04-14T04:17:10.995Z,0.17
2023-04-14T04:19:38.191Z,0.53
2023-04-14T04:22:05.350Z,0.30
2023-04-14T04:24:34.116Z,0.20
2023-04-14T04:27:01.388Z,0.37
2023-04-14T04:29:29.608Z,0.67
2023-04-14T04:31:56.945Z,0.10
2023-04-14T04:34:25.552Z,0.20
2023-04-14T04:36:53.618Z,0.20
2023-04-14T04:39:20.755Z,0.20
2023-04-14T04:41:51.813Z,0.20
2023-04-14T04:44:18.880Z,0.17
2023-04-14T04:46:50.924Z,0.13
2023-04-14T04:49:17.979Z,0.20
2023-04-14T04:51:46.152Z,0.20
2023-04-14T04:54:14.623Z,0.10
2023-04-14T04:56:41.804Z,0.10
2023-04-14T04:59:08.976Z,0.10
2023-04-14T05:01:36.674Z,0.30
2023-04-14T05:18:50.129Z,0.00
2023-04-14T05:21:28.581Z,0.10
2023-04-14T05:24:05.600Z,0.17
2023-04-14T05:27:12.452Z,0.20
2023-04-14T05:29:48.635Z,0.40
2023-04-14T05:32:24.042Z,1.03
2023-04-14T05:35:20.576Z,0.20
2023-04-14T05:37:56.835Z,0.00
2023-04-14T05:41:22.810Z,0.30
2023-04-14T05:44:09.100Z,0.00
2023-04-14T05:46:41.456Z,0.10
2023-04-14T05:49:08.776Z,0.00
2023-04-14T05:51:39.317Z,0.10
2023-04-14T05:54:06.980Z,0.17
2023-04-14T05:56:34.826Z,0.10
2023-04-14T05:59:01.864Z,0.53
2023-04-14T06:01:29.246Z,0.10
2023-04-14T06:03:57.020Z,0.00
2023-04-14T06:06:29.938Z,0.10
2023-04-14T06:08:58.118Z,0.00
2023-04-14T06:11:25.846Z,0.10
2023-04-14T06:13:56.329Z,0.00
2023-04-14T06:16:23.497Z,0.10
2023-04-14T06:18:51.534Z,0.07
2023-04-14T06:21:24.291Z,0.07
2023-04-14T06:23:51.736Z,0.10
2023-04-14T06:26:18.942Z,0.13
2023-04-14T06:28:47.176Z,0.03
2023-04-14T06:31:15.318Z,0.10
2023-04-14T06:33:42.544Z,0.20
2023-04-14T06:36:10.197Z,0.10
2023-04-14T06:38:37.348Z,0.23
2023-04-14T06:41:04.562Z,0.30
2023-04-14T06:43:31.786Z,0.30
2023-04-14T06:45:58.861Z,0.10
2023-04-14T06:48:27.415Z,0.30
2023-04-14T06:50:55.966Z,0.10
2023-04-14T06:53:23.587Z,0.17
2023-04-14T06:55:59.622Z,0.13
2023-04-14T06:58:30.143Z,0.35
2023-04-14T07:01:01.694Z,0.33
2023-04-14T07:03:30.488Z,0.30
2023-04-14T07:06:08.351Z,0.10
2023-04-14T07:08:41.080Z,0.27
2023-04-14T07:11:09.227Z,0.10
2023-04-14T07:13:36.859Z,0.00
2023-04-14T07:16:04.326Z,0.40
2023-04-14T07:18:31.895Z,0.00
2023-04-14T07:21:02.232Z,0.20
2023-04-14T07:23:29.272Z,0.40
2023-04-14T07:25:57.570Z,0.53
2023-04-14T07:28:25.163Z,0.00
2023-04-14T07:30:53.203Z,0.13
2023-04-14T07:33:22.072Z,0.83
2023-04-14T07:36:04.127Z,0.10
2023-04-14T07:38:34.763Z,0.73
2023-04-14T07:41:04.319Z,0.30
2023-04-14T07:43:37.301Z,0.10
2023-04-14T07:46:05.426Z,0.10
2023-04-14T07:48:33.898Z,0.55
2023-04-14T07:51:01.639Z,0.40
2023-04-14T07:53:28.696Z,0.75
2023-04-14T07:56:04.452Z,0.55
2023-04-14T07:58:36.650Z,0.70
2023-04-14T08:01:31.666Z,0.30
2023-04-14T08:03:59.092Z,0.00
2023-04-14T08:06:28.064Z,0.00
2023-04-14T08:08:55.167Z,0.30
2023-04-14T08:11:22.444Z,0.10
2023-04-14T08:13:50.241Z,0.10
2023-04-14T08:16:17.319Z,0.25
2023-04-14T08:18:44.758Z,0.17
2023-04-14T08:21:11.724Z,0.00
2023-04-14T08:23:38.668Z,0.20
2023-04-14T08:26:05.710Z,0.10
2023-04-14T08:28:32.624Z,0.10
2023-04-14T08:31:27.646Z,0.20
2023-04-14T08:33:56.005Z,0.10
2023-04-14T08:36:23.097Z,0.10
2023-04-14T08:38:50.930Z,0.08
2023-04-14T08:41:19.371Z,0.20
2023-04-14T08:43:46.616Z,0.85
2023-04-14T08:46:14.299Z,0.00
2023-04-14T08:48:41.249Z,0.30
2023-04-14T08:51:28.551Z,0.35
2023-04-14T08:53:56.470Z,0.10
2023-04-14T08:56:23.954Z,0.35
2023-04-14T08:58:51.048Z,0.05
2023-04-14T09:01:19.261Z,0.20
2023-04-14T09:03:46.590Z,0.10
2023-04-14T09:06:14.190Z,0.10
2023-04-14T09:08:41.108Z,0.00
2023-04-14T09:11:08.073Z,0.00
2023-04-14T09:13:35.214Z,0.10
2023-04-14T09:16:07.954Z,0.00
2023-04-14T09:18:36.746Z,0.00
2023-04-14T09:21:49.522Z,0.15
2023-04-14T09:23:51.089Z,0.00
2023-04-14T09:26:18.780Z,0.47
2023-04-14T09:28:46.216Z,0.90
2023-04-14T09:31:13.362Z,0.30
2023-04-14T09:33:43.530Z,0.10
2023-04-14T09:36:23.914Z,0.00
2023-04-14T09:38:51.425Z,0.00
2023-04-14T09:41:27.594Z,0.00
2023-04-14T09:43:54.922Z,0.10
2023-04-14T09:46:22.422Z,0.10
2023-04-14T09:48:56.178Z,0.00
2023-04-14T09:51:30.203Z,0.20
2023-04-14T09:54:05.090Z,0.00
2023-04-14T09:56:32.666Z,0.10
2023-04-14T09:59:00.885Z,0.00
2023-04-14T10:01:31.331Z,0.00
2023-04-14T10:03:58.494Z,0.00
2023-04-14T10:06:26.789Z,0.00
2023-04-14T10:08:55.496Z,0.00
2023-04-14T10:11:29.729Z,0.00
2023-04-14T10:14:18.824Z,0.10
2023-04-14T10:17:11.711Z,0.05
2023-04-14T10:19:39.775Z,0.00
2023-04-14T10:22:06.971Z,0.00
2023-04-14T10:24:34.091Z,0.15
2023-04-14T10:27:02.890Z,0.00
2023-04-14T10:29:30.785Z,0.00
2023-04-14T10:32:08.778Z,0.10
2023-04-14T10:34:35.900Z,0.10
2023-04-14T10:37:13.941Z,0.00
2023-04-14T10:39:43.678Z,0.00
2023-04-14T10:42:10.907Z,0.00
2023-04-14T10:44:37.988Z,0.00
2023-04-14T10:47:07.679Z,0.00
2023-04-14T10:49:36.865Z,0.10
2023-04-14T10:52:10.900Z,0.00
2023-04-14T10:55:51.830Z,0.25
2023-04-14T10:58:23.909Z,0.10
2023-04-14T11:00:54.411Z,0.00
2023-04-14T11:03:21.758Z,0.13
2023-04-14T11:05:53.077Z,0.00
2023-04-14T11:08:25.682Z,0.00
2023-04-14T11:11:05.351Z,0.00
2023-04-14T11:13:34.873Z,0.20
2023-04-14T11:16:08.403Z,0.00
2023-04-14T11:18:48.317Z,0.00
2023-04-14T11:21:18.857Z,0.30
2023-04-14T11:43:25.846Z,0.00
2023-04-14T11:45:53.762Z,0.00
2023-04-14T11:49:00.395Z,0.00
2023-04-14T11:51:31.654Z,0.00
2023-04-14T11:54:01.025Z,0.00
2023-04-14T11:56:50.742Z,0.00
2023-04-14T12:02:35.328Z,0.00
2023-04-14T12:05:05.773Z,0.00
2023-04-14T12:10:37.883Z,0.00
2023-04-14T12:13:09.754Z,0.00
2023-04-14T12:15:38.381Z,0.00
2023-04-14T12:18:08.162Z,0.00
2023-04-14T12:20:45.969Z,0.00
2023-04-14T12:23:18.904Z,0.00
2023-04-14T12:25:50.218Z,0.00
2023-04-14T12:34:42.035Z,0.00
2023-04-14T12:37:15.102Z,0.00
2023-04-14T12:39:54.293Z,0.00
2023-04-14T12:42:21.533Z,0.00
2023-04-14T12:45:02.254Z,0.00
2023-04-14T12:47:34.438Z,0.00
2023-04-14T12:50:03.352Z,0.00
2023-04-14T12:52:37.330Z,0.00
2023-04-14T12:55:19.276Z,0.00
2023-04-14T12:57:46.632Z,0.00
2023-04-14T13:00:14.599Z,0.00
2023-04-14T13:02:44.633Z,0.03
2023-04-14T13:05:18.655Z,0.00
2023-04-14T13:07:48.666Z,0.00
2023-04-14T13:10:17.141Z,0.00
2023-04-14T13:12:44.159Z,0.00
2023-04-14T13:16:00.270Z,0.00
2023-04-14T13:17:58.974Z,0.00
2023-04-14T13:20:26.240Z,0.00
2023-04-14T13:22:53.340Z,0.00
2023-04-14T13:25:20.381Z,0.00
2023-04-14T13:27:47.563Z,0.00
2023-04-14T13:30:14.713Z,0.00
2023-04-14T13:32:42.606Z,0.00
2023-04-14T13:35:09.675Z,0.00
2023-04-14T13:37:42.617Z,0.00
2023-04-14T13:40:09.857Z,0.00
2023-04-14T13:42:37.073Z,0.00
2023-04-14T13:45:04.834Z,0.00
2023-04-14T13:47:31.821Z,0.00
2023-04-14T13:49:58.787Z,0.00
2023-04-14T13:52:26.142Z,0.00
2023-04-14T13:54:53.285Z,0.00
2023-04-14T13:57:21.862Z,0.00
2023-04-14T13:59:49.761Z,0.00
2023-04-14T14:02:16.790Z,0.00
2023-04-14T14:04:44.717Z,0.00
2023-04-14T14:07:11.961Z,0.00
2023-04-14T14:09:38.856Z,0.00
2023-04-14T14:12:05.936Z,0.00
2023-04-14T14:14:33.175Z,0.00
2023-04-14T14:17:00.312Z,0.00
2023-04-14T14:19:27.678Z,0.00
2023-04-14T14:21:54.679Z,0.00
2023-04-14T14:24:21.619Z,0.00
2023-04-14T14:26:48.580Z,0.00
2023-04-14T14:29:15.566Z,0.00
2023-04-14T14:31:42.605Z,0.00
2023-04-14T14:34:09.763Z,0.00
2023-04-14T14:36:36.762Z,0.00
2023-04-14T14:39:03.781Z,0.00
2023-04-14T14:41:31.140Z,0.00
2023-04-14T14:43:59.353Z,0.00
2023-04-14T14:46:27.812Z,0.10
2023-04-14T14:48:54.961Z,0.00
2023-04-14T14:51:21.907Z,0.00
2023-04-14T14:53:48.891Z,0.00
2023-04-14T14:56:16.500Z,0.30
2023-04-14T14:58:43.420Z,0.00
2023-04-14T15:01:14.843Z,0.00
2023-04-14T15:03:43.477Z,0.00
2023-04-14T15:06:10.960Z,0.00
2023-04-14T15:08:38.590Z,0.00
2023-04-14T15:11:08.605Z,0.00
2023-04-14T15:13:35.632Z,0.00
2023-04-14T15:16:02.626Z,0.00
2023-04-14T15:18:29.627Z,0.00
2023-04-14T15:20:56.794Z,0.00
2023-04-14T15:23:24.868Z,0.00
2023-04-14T15:25:51.800Z,0.00
2023-04-14T15:28:18.899Z,0.00
2023-04-14T15:30:45.905Z,0.00
2023-04-14T15:33:12.901Z,0.00
2023-04-14T15:35:40.315Z,0.00
2023-04-14T15:38:07.468Z,0.00
2023-04-14T15:40:34.569Z,0.00
2023-04-14T15:43:01.740Z,0.00
2023-04-14T15:45:28.661Z,0.00
2023-04-14T15:47:55.961Z,0.00
2023-04-14T15:50:23.027Z,0.00
2023-04-14T15:52:50.827Z,0.00
2023-04-14T15:55:17.780Z,0.00
2023-04-14T15:57:44.700Z,0.00
2023-04-14T16:00:12.567Z,0.00
2023-04-14T16:02:39.727Z,0.00
2023-04-14T16:05:07.395Z,0.00
2023-04-14T16:07:34.647Z,0.00
2023-04-14T16:10:04.446Z,0.00
2023-04-14T16:12:33.714Z,0.00
2023-04-14T16:15:00.837Z,0.00
2023-04-14T16:17:28.012Z,0.00
2023-04-14T16:19:55.268Z,0.00
2023-04-14T16:22:22.366Z,0.00
2023-04-14T16:24:49.359Z,0.00
2023-04-14T16:27:17.220Z,0.00
2023-04-14T16:29:45.229Z,0.00
2023-04-14T16:32:12.652Z,0.00
2023-04-14T16:34:39.686Z,0.00
2023-04-14T16:37:06.931Z,0.10
2023-04-14T16:39:33.951Z,0.00
2023-04-14T16:42:03.387Z,0.00
2023-04-14T16:44:35.735Z,0.00
2023-04-14T16:47:06.626Z,0.00
2023-04-14T16:49:34.755Z,0.00
2023-04-14T16:52:10.377Z,0.00
2023-04-14T16:54:38.234Z,0.00
2023-04-14T16:57:05.350Z,0.00
2023-04-14T16:59:32.300Z,0.00
2023-04-14T17:01:59.591Z,0.15
2023-04-14T17:04:27.381Z,0.00
2023-04-14T17:06:55.006Z,0.00
2023-04-14T17:09:22.456Z,0.00
2023-04-14T17:11:49.785Z,0.00
2023-04-14T17:14:16.838Z,0.00
2023-04-14T17:16:43.940Z,0.00
2023-04-14T17:19:11.259Z,0.00
2023-04-14T17:21:38.604Z,0.00
2023-04-14T17:24:05.889Z,0.00
2023-04-14T17:26:33.228Z,0.00
2023-04-14T17:36:08.656Z,0.10
2023-04-14T17:38:36.047Z,0.00
2023-04-14T17:41:03.286Z,0.00
2023-04-14T17:43:31.255Z,0.00
2023-04-14T17:46:03.240Z,0.00
2023-04-14T17:48:34.846Z,0.00
2023-04-14T17:51:08.279Z,0.00
2023-04-14T17:53:35.391Z,0.00
2023-04-14T17:56:02.466Z,0.00
2023-04-14T17:58:29.879Z,0.00
2023-04-14T18:00:57.552Z,0.00
2023-04-14T18:03:24.812Z,0.00
2023-04-14T18:05:51.969Z,0.00
2023-04-14T18:08:18.917Z,0.00
2023-04-14T18:10:46.064Z,0.00
2023-04-14T18:13:13.174Z,0.00
2023-04-14T18:15:41.942Z,0.00
2023-04-14T18:18:09.088Z,0.00
2023-04-14T18:20:37.484Z,0.00
2023-04-14T18:23:05.252Z,0.00
2023-04-14T18:28:03.646Z,0.00
2023-04-14T18:30:31.383Z,0.00
2023-04-14T18:32:58.787Z,0.00
2023-04-14T18:35:26.402Z,0.00
2023-04-14T18:37:53.712Z,0.00
2023-04-14T18:40:21.045Z,0.00
2023-04-14T18:42:50.354Z,0.00
2023-04-14T18:45:20.123Z,0.00
2023-04-14T18:47:47.972Z,0.00
2023-04-14T18:50:15.304Z,0.00
2023-04-14T18:52:44.686Z,0.00
2023-04-14T18:55:11.694Z,0.00
2023-04-14T18:57:39.072Z,0.00
2023-04-14T19:00:06.701Z,0.08
2023-04-14T19:02:34.548Z,0.00
2023-04-14T19:05:02.421Z,0.00
2023-04-14T19:07:29.604Z,0.00
2023-04-14T19:09:56.678Z,0.00
2023-04-14T19:12:28.657Z,0.00
2023-04-14T19:14:56.077Z,0.00
2023-04-14T19:17:23.189Z,0.00
2023-04-14T19:19:50.526Z,0.10
2023-04-14T19:22:17.838Z,0.00
2023-04-14T19:24:44.977Z,0.08
2023-04-14T19:27:12.024Z,0.00
2023-04-14T19:29:40.427Z,0.00
2023-04-14T19:32:08.033Z,0.00
2023-04-14T19:34:36.195Z,0.00
2023-04-14T19:37:03.948Z,0.00
2023-04-14T19:39:31.207Z,0.00
2023-04-14T19:41:58.315Z,0.00
2023-04-14T19:44:29.000Z,0.00
2023-04-14T19:46:56.599Z,0.22
2023-04-14T19:49:27.023Z,0.00
2023-04-14T19:51:54.764Z,0.15
2023-04-14T19:54:23.152Z,0.00
2023-04-14T19:56:50.249Z,0.03
2023-04-14T19:59:20.948Z,0.03
2023-04-14T20:01:50.381Z,0.00
2023-04-14T20:04:20.803Z,0.00
2023-04-14T20:06:48.221Z,0.00
2023-04-14T20:09:15.988Z,0.00
2023-04-14T20:11:43.284Z,0.10
2023-04-14T20:14:10.723Z,0.10
2023-04-14T20:16:39.293Z,0.10
2023-04-14T20:19:07.482Z,0.20
2023-04-14T20:21:34.764Z,0.40
2023-04-14T20:24:01.962Z,0.28
2023-04-14T20:26:28.886Z,0.20
2023-04-14T20:28:56.110Z,0.20
2023-04-14T20:31:24.528Z,0.25
2023-04-14T20:33:51.717Z,0.20
2023-04-14T20:36:18.954Z,0.30
2023-04-14T20:38:46.056Z,0.10
2023-04-14T20:41:13.037Z,0.10
2023-04-14T20:43:45.088Z,0.10
2023-04-14T20:46:12.228Z,0.20
2023-04-14T20:48:39.364Z,0.10
2023-04-14T20:51:06.424Z,0.40
2023-04-14T20:53:35.053Z,0.20
2023-04-14T20:56:02.245Z,0.10
2023-04-14T20:58:29.292Z,0.10
2023-04-14T21:00:57.054Z,0.10
2023-04-14T21:03:24.252Z,0.20
2023-04-14T21:05:51.506Z,0.20
2023-04-14T21:08:19.432Z,0.57
2023-04-14T21:11:15.067Z,0.20
2023-04-14T21:15:42.360Z,0.20
2023-04-14T21:16:21.054Z,0.30
2023-04-14T21:18:48.046Z,0.20
2023-04-14T21:21:15.096Z,0.30
2023-04-14T21:23:42.318Z,0.30
2023-04-14T21:26:09.312Z,0.28
2023-04-14T21:28:36.910Z,0.25
2023-04-14T21:31:04.572Z,0.40
2023-04-14T21:33:33.408Z,0.65
2023-04-14T21:36:02.336Z,0.35
2023-04-14T21:38:29.673Z,0.70
2023-04-14T21:40:56.817Z,0.65
2023-04-14T21:43:26.410Z,0.80
2023-04-14T21:45:53.948Z,1.05
2023-04-14T21:48:20.988Z,1.10
2023-04-14T21:50:48.133Z,1.27
2023-04-14T21:53:15.351Z,1.27
2023-04-14T21:55:42.607Z,2.10
2023-04-14T21:58:09.805Z,1.50
2023-04-14T22:00:37.207Z,2.00
2023-04-14T22:03:04.456Z,2.42
2023-04-14T22:05:31.499Z,2.53
2023-04-14T22:07:58.572Z,2.75
2023-04-14T22:10:31.900Z,2.30
2023-04-14T22:13:00.360Z,1.80
2023-04-14T22:15:27.871Z,1.02
2023-04-14T22:17:56.020Z,1.90
2023-04-14T22:20:24.256Z,1.50
2023-04-14T22:22:51.408Z,1.33
2023-04-14T22:25:18.877Z,1.65
2023-04-14T22:27:46.838Z,1.60
2023-04-14T22:30:18.070Z,1.42
2023-04-14T22:32:48.505Z,1.65
2023-04-14T22:35:16.508Z,1.20
2023-04-14T22:37:43.716Z,1.35
2023-04-14T22:40:14.316Z,1.35
2023-04-14T22:42:41.256Z,1.00
2023-04-14T22:45:08.630Z,0.98
2023-04-14T22:47:35.721Z,1.48
2023-04-14T22:50:02.877Z,1.10
2023-04-14T22:52:29.961Z,1.60
2023-04-14T22:54:56.934Z,1.13
2023-04-14T22:57:23.978Z,1.35
2023-04-14T22:59:51.835Z,1.17
2023-04-14T23:02:19.945Z,1.20
2023-04-14T23:04:47.103Z,0.77
2023-04-14T23:07:14.443Z,1.30
2023-04-14T23:09:41.345Z,0.82
2023-04-14T23:12:08.258Z,1.08
2023-04-14T23:14:35.697Z,0.57
2023-04-14T23:17:02.708Z,1.25
2023-04-14T23:19:29.724Z,0.55
2023-04-14T23:21:56.922Z,0.52
2023-04-14T23:24:23.897Z,8.80
2023-04-14T23:26:51.034Z,3.83
2023-04-14T23:29:17.978Z,0.50
2023-04-14T23:31:44.977Z,0.43
2023-04-14T23:35:10.963Z,0.45
2023-04-14T23:38:46.207Z,0.20
2023-04-14T23:42:24.083Z,0.30
2023-04-14T23:45:45.302Z,0.10
2023-04-14T23:48:12.237Z,0.20
2023-04-14T23:50:59.077Z,0.20
2023-04-14T23:53:26.276Z,0.10
2023-04-14T23:55:53.262Z,0.10
2023-04-14T23:58:26.461Z,0.15
